West Bend, WI

4:07 AM CDT on August 28, 2016 (GMT -0500)
West Bend Municipal | | Change Station
Active Advisory: Dense Fog Advisory

Elev 886 ft 43.42 °N, 88.13 °W | Updated 17 minutes ago

Fog
Fog
63 °F
Feels Like 63 °F
N
0
Wind Variable Wind from North

Today
High -- | Low -- °F
--% Chance of Precip.
Yesterday
High -- | Low -- °F
Precip. -- in
Pressure 30.14 in
Visibility 0.2 miles
Clouds Overcast 300 ft
Dew Point 63 °F
Humidity 100%
Rainfall 0.00 in
Snow Depth Not available.
6:12 AM 7:33 PM
Waning Crescent, 17% visible
METAR KETB 280850Z AUTO 00000KT 1/4SM FG OVC003 17/17 A3014 RMK AO2
Pressure 30.14 in
Visibility 0.2 miles
Clouds Overcast 300 ft
Dew Point 63 °F
Humidity 100%
Rainfall 0.00 in
Snow Depth Not available.
6:12 AM 7:33 PM
Waning Crescent, 17% visible
METAR KETB 280850Z AUTO 00000KT 1/4SM FG OVC003 17/17 A3014 RMK AO2

10-Day Weather Forecast

Almanac

Astronomy

Aug. 28, 2016 Rise Set
Actual Time
Civil Twilight
Nautical Twilight
Astronomical Twilight
Moon
Length of Visible Light
Length of Day
Tomorrow will be .
, % of the Moon is Illuminated

Today's Extremes

State Highs State Lows

Community

WunderPhotos

Upload Photos

1,935,540 photos uploaded!

WunderBlog® & News

Nearby

Air Quality

  Air Quality AQ Index Pollutant
Not available.

Snow Depth

Station Depth Elevation

Earthquake Activity

City Distance Mag. Time & Date
Minimum magnitude displayed is 2.5.

Coastal Water Temperatures

Place Temperature

Stations

Nearby Weather Stations

Station Location Temp. Windchill Dew Point Humidity Wind Precip. Elev Updated Type
                   

Watches & Warnings

Dense Fog Advisory
Issued: 4:02 AM CDT Aug. 28, 2016 – National Weather Service

... Dense fog advisory remains in effect until 10 am CDT this
morning...

A dense fog advisory remains in effect until 10 am CDT this
morning.

* Timing... into mid morning.

* Visibility... less than a quarter mile.

* Impacts... it may be difficult to see the Road if you are out
driving.

Precautionary/preparedness actions...

A dense fog advisory means visibilities will frequently be
reduced to less than one quarter mile. If driving... slow down...
use your headlights... and leave plenty of distance ahead of you.



Hentz